»·PEaware :: FDX181 KONT-KBUR

FDX181 :: KONT-KBUR

FLIGHT INFORMATION

Flight Status: Arrived
Operator:
Federal Express
More flights by this operator :: More flights under this callsign
Pilot: Anonymous 16342 (16342)
Aircraft: Unknown
(B77F)
More flights by this aircraft type
Origin: KONT Ontario Intl
United States
Destination: KBUR Bob Hope-Burbank
United States
More flights between these airports :: More routes between these airports
Route: +PDZ V197 POM V264 ITSME V186 VNY
File this flight plan on PilotEdge
Remarks: ONTP2
Altitude:
(Current/Filed)
8,000ft
Speed:
(Current/Filed)
240kts
Departed: 14-Dec-18 12:31 PM
Arrived: 14-Dec-18 12:51 PM
Distance/Time
Traveled:
39nm/0:20
Distance/Time
To Go:
Arrived

Flight Plot

Page will automatically refresh every two minutes.


Map Options




Map Legend


Flown Route
Filed Route
Departure Airport
Arrival Airport
Navaid (VOR, NDB)
Fix

Horizontal Profiles

Position Reports

Time Latitude Longitude Heading Altitude Ground
Speed
14-Dec-18 12:03 34.059492 -117.621293 141 957ft 0kts
14-Dec-18 12:04 34.059492 -117.621293 141 957ft 0kts
14-Dec-18 12:05 34.059492 -117.621293 141 957ft 0kts
14-Dec-18 12:06 34.059492 -117.621293 141 957ft 0kts
14-Dec-18 12:07 34.059492 -117.621293 141 957ft 0kts
14-Dec-18 12:08 34.059492 -117.621293 141 957ft 0kts
14-Dec-18 12:09 34.059492 -117.621293 141 957ft 0kts
14-Dec-18 12:10 34.059491 -117.621293 141 957ft 0kts
14-Dec-18 12:11 34.059491 -117.621292 141 957ft 0kts
14-Dec-18 12:12 34.059491 -117.621292 141 957ft 0kts
14-Dec-18 12:13 34.059491 -117.621292 141 957ft 0kts
14-Dec-18 12:14 34.059491 -117.621292 141 957ft 0kts
14-Dec-18 12:15 34.059491 -117.621292 141 957ft 0kts
14-Dec-18 12:16 34.059491 -117.621292 141 957ft 0kts
14-Dec-18 12:17 34.059491 -117.621292 141 957ft 0kts
14-Dec-18 12:18 34.059491 -117.621292 141 957ft 0kts
14-Dec-18 12:19 34.059491 -117.621292 141 957ft 0kts
14-Dec-18 12:20 34.059491 -117.621292 141 957ft 0kts
14-Dec-18 12:21 34.059491 -117.621292 141 957ft 0kts
14-Dec-18 12:22 34.059491 -117.621292 141 957ft 0kts
14-Dec-18 12:23 34.059491 -117.621292 141 957ft 0kts
14-Dec-18 12:24 34.059108 -117.621625 236 957ft 13kts
14-Dec-18 12:25 34.057997 -117.615733 90 957ft 32kts
14-Dec-18 12:26 34.057913 -117.603049 90 957ft 34kts
14-Dec-18 12:27 34.057922 -117.593888 90 957ft 29kts
14-Dec-18 12:28 34.057855 -117.585882 90 957ft 23kts
14-Dec-18 12:29 34.057679 -117.582861 133 957ft 0kts
14-Dec-18 12:31 34.056849 -117.606707 271 1061ft 207kts
14-Dec-18 12:32 34.059175 -117.681218 270 3982ft 228kts
14-Dec-18 12:33 34.060697 -117.744328 274 3954ft 228kts
14-Dec-18 12:34 34.074602 -117.819386 282 3969ft 229kts
14-Dec-18 12:35 34.079718 -117.898376 258 4253ft 256kts
14-Dec-18 12:36 34.075131 -117.974640 268 6310ft 264kts
14-Dec-18 12:37 34.091384 -118.062545 289 7990ft 277kts
14-Dec-18 12:38 34.118509 -118.149257 289 7998ft 275kts
14-Dec-18 12:39 34.137100 -118.235400 273 7870ft 263kts
14-Dec-18 12:40 34.142943 -118.318216 272 7049ft 243kts
14-Dec-18 12:41 34.148251 -118.398029 272 5231ft 233kts
14-Dec-18 12:42 34.149594 -118.464201 267 4009ft 193kts
14-Dec-18 12:43 34.149074 -118.525852 267 4001ft 184kts
14-Dec-18 12:44 34.148554 -118.587789 267 4001ft 184kts
14-Dec-18 12:45 34.169079 -118.636057 358 3993ft 188kts
14-Dec-18 12:46 34.194566 -118.589722 72 3998ft 168kts
14-Dec-18 12:47 34.200476 -118.534975 93 3398ft 164kts
14-Dec-18 12:48 34.199505 -118.483791 91 2563ft 150kts
14-Dec-18 12:49 34.198817 -118.433277 91 1772ft 150kts
14-Dec-18 12:49 34.198244 -118.391159 90 1109ft 149kts
14-Dec-18 12:51 34.197337 -118.358059 165 734ft 8kts
14-Dec-18 12:52 34.196856 -118.358837 267 734ft 17kts
14-Dec-18 12:53 34.196267 -118.360879 184 734ft 0kts
14-Dec-18 12:54 34.196264 -118.360879 184 734ft 0kts
14-Dec-18 12:55 34.196262 -118.360879 184 734ft 0kts

Navigation Log

Ident Type
Flight plan parsing failed, navigation log unavailable